Terminal Aerodrome Forecast
Issued by NWS Cleveland, OH

Home | Current Version | Previous Version | Graphics & Text | Print | Product List | Glossary Off
Versions: 1 2 3 4 5 6 7 8 9 10 11 12 13 14 15 16 17 18 19 20 21 22 23 24 25 26 27 28 29 30 31 32

000
FTUS41 KCLE 040854 AAB
TAFCLE
TAF AMD
KCLE 040854Z 0409/0512 VRB05KT P6SM -SHRA SCT050 BKN080
      TEMPO 0409/0410 16005KT 4SM -TSRA BR SCT012 BKN035CB
     FM041100 17003KT 6SM BR SCT050 BKN120
      TEMPO 0411/0413 4SM BR SCT010
     FM041400 18006KT P6SM SCT250
     FM042000 04006KT P6SM VCTS BKN045CB
     FM050100 15005KT P6SM BKN200=

USA.gov is the U.S. government's official web portal to all federal, state and local government web resources and services.